createdAt,value
2022-10-19T00:04:57.141Z,8.2
2022-10-19T00:09:59.173Z,8.4
2022-10-19T00:15:01.328Z,8.7
2022-10-19T00:20:03.445Z,9
2022-10-19T00:25:05.448Z,9.1
2022-10-19T00:30:07.518Z,8.8
2022-10-19T00:35:09.670Z,8.9
2022-10-19T00:40:11.779Z,8.6
2022-10-19T00:45:13.910Z,8.6
2022-10-19T00:50:16.079Z,8.6
2022-10-19T00:55:18.349Z,8.7
2022-10-19T01:00:20.617Z,8.6
2022-10-19T01:05:22.675Z,8.7
2022-10-19T01:10:24.747Z,8.9
2022-10-19T01:15:26.937Z,8.9
2022-10-19T01:20:29.184Z,9.1
2022-10-19T01:25:31.354Z,9.2
2022-10-19T01:30:33.507Z,9.2
2022-10-19T01:35:35.602Z,9.2
2022-10-19T01:40:37.811Z,9.4
2022-10-19T01:45:39.847Z,9.5
2022-10-19T01:50:42.371Z,9.5
2022-10-19T01:55:44.512Z,9.5
2022-10-19T02:00:47.213Z,9.7
2022-10-19T02:05:49.279Z,9.7
2022-10-19T02:10:51.455Z,9.9
2022-10-19T02:15:53.581Z,9.8
2022-10-19T02:20:55.727Z,9.8
2022-10-19T02:25:58.304Z,9.8
2022-10-19T02:31:00.312Z,9.8
2022-10-19T02:36:02.660Z,9.6
2022-10-19T02:41:04.831Z,9.5
2022-10-19T02:46:07.005Z,9.6
2022-10-19T02:51:09.064Z,9.6
2022-10-19T02:56:11.826Z,9.5
2022-10-19T03:01:14.303Z,9.5
2022-10-19T03:06:16.361Z,9.5
2022-10-19T03:11:18.796Z,9.2
2022-10-19T03:16:20.908Z,9
2022-10-19T03:21:23.170Z,8.8
2022-10-19T03:26:25.224Z,8.8
2022-10-19T03:31:27.363Z,8.8
2022-10-19T03:36:29.683Z,8.8
2022-10-19T03:41:31.681Z,8.8
2022-10-19T03:46:33.742Z,8.8
2022-10-19T03:51:35.868Z,8.8
2022-10-19T03:56:38.008Z,8.7
2022-10-19T04:01:40.310Z,8.7
2022-10-19T04:06:42.358Z,8.7
2022-10-19T04:11:44.632Z,8.7
2022-10-19T04:16:46.931Z,8.7
2022-10-19T04:21:49.150Z,8.8
2022-10-19T04:26:51.133Z,8.8
2022-10-19T04:31:53.405Z,8.8
2022-10-19T04:36:56.772Z,8.7
2022-10-19T04:41:58.808Z,8.7
2022-10-19T04:47:01.023Z,8.8
2022-10-19T04:52:03.557Z,9.1
2022-10-19T04:57:05.929Z,9.2
2022-10-19T05:02:08.056Z,9.3
2022-10-19T05:07:10.266Z,9.4
2022-10-19T05:12:12.535Z,9.8
2022-10-19T05:17:14.761Z,10
2022-10-19T05:22:16.807Z,10.1
2022-10-19T05:27:19.930Z,10
2022-10-19T05:32:21.915Z,10
2022-10-19T05:37:24.260Z,10.1
2022-10-19T05:42:26.343Z,10.3
2022-10-19T05:47:32.623Z,10.4
2022-10-19T05:52:35.458Z,10.4
2022-10-19T05:57:38.611Z,10.6
2022-10-19T06:02:41.178Z,10.6
2022-10-19T06:12:43.711Z,10.8
2022-10-19T06:17:45.934Z,11.2
2022-10-19T06:22:48.162Z,11.3
2022-10-19T06:27:50.380Z,11.4
2022-10-19T06:32:53.192Z,11.6
2022-10-19T06:37:55.438Z,11.6
2022-10-19T06:42:57.876Z,11.5
2022-10-19T06:48:07.449Z,12.9
2022-10-19T06:53:09.945Z,13
2022-10-19T06:58:12.290Z,16.2
2022-10-19T07:03:14.616Z,15.8
2022-10-19T07:08:17.016Z,17.2
2022-10-19T07:18:19.819Z,22.3
2022-10-19T07:23:22.078Z,24
2022-10-19T07:28:24.204Z,26.3
2022-10-19T07:33:26.682Z,26.8
2022-10-19T07:38:28.891Z,27.3
2022-10-19T07:43:30.958Z,27.9
2022-10-19T07:48:33.525Z,29.3
2022-10-19T07:53:35.684Z,31.1
2022-10-19T07:58:38.473Z,32.2
2022-10-19T08:04:59.329Z,32.8
2022-10-19T08:08:46.678Z,33.1
2022-10-19T08:13:48.695Z,34
2022-10-19T08:18:50.762Z,34.1
2022-10-19T08:23:52.776Z,34.1
2022-10-19T08:28:54.891Z,33.4
2022-10-19T08:33:57.220Z,34.2
2022-10-19T08:38:59.352Z,33.9
2022-10-19T08:44:03.114Z,34.2
2022-10-19T08:49:10.883Z,34.2
2022-10-19T08:54:13.146Z,35.1
2022-10-19T08:59:15.334Z,35.7
2022-10-19T09:04:17.338Z,35.3
2022-10-19T09:09:19.450Z,35.9
2022-10-19T09:14:21.599Z,36.1
2022-10-19T09:19:23.666Z,36.3
2022-10-19T09:24:25.957Z,35.8
2022-10-19T09:29:28.204Z,35.9
2022-10-19T09:34:30.276Z,37.1
2022-10-19T09:39:32.367Z,37.7
2022-10-19T09:44:34.761Z,38.2
2022-10-19T09:49:37.593Z,38
2022-10-19T09:54:39.681Z,37.9
2022-10-19T09:59:41.789Z,37.8
2022-10-19T10:04:43.985Z,38.5
2022-10-19T10:09:46.132Z,38.6
2022-10-19T10:14:48.158Z,39
2022-10-19T10:19:50.297Z,39.2
2022-10-19T10:24:52.419Z,38.6
2022-10-19T10:35:02.734Z,35.6
2022-10-19T10:40:06.736Z,36.6
2022-10-19T10:45:09.146Z,36.6
2022-10-19T10:50:11.362Z,38.7
2022-10-19T10:55:13.486Z,38.2
2022-10-19T11:00:15.875Z,38.5
2022-10-19T11:05:18.456Z,38.7
2022-10-19T11:10:20.627Z,38.7
2022-10-19T11:15:22.988Z,38.4
2022-10-19T11:20:25.230Z,37.3
2022-10-19T11:25:27.339Z,35.2
2022-10-19T11:30:29.306Z,36.4
2022-10-19T11:35:31.289Z,36.5
2022-10-19T11:40:33.586Z,34.3
2022-10-19T11:45:35.716Z,30.5
2022-10-19T11:50:37.738Z,32.3
2022-10-19T11:55:39.919Z,31.3
2022-10-19T12:00:42.533Z,30.2
2022-10-19T12:05:44.968Z,30.2
2022-10-19T12:10:47.335Z,32.9
2022-10-19T12:15:49.778Z,32.9
2022-10-19T12:20:52.085Z,32.9
2022-10-19T12:25:54.194Z,32.7
2022-10-19T12:30:56.604Z,31.9
2022-10-19T12:35:59.107Z,32
2022-10-19T12:41:01.363Z,31.3
2022-10-19T12:46:03.576Z,29.5
2022-10-19T12:51:05.794Z,27
2022-10-19T12:56:07.982Z,25.7
2022-10-19T13:01:10.547Z,25.7
2022-10-19T13:06:12.835Z,24.7
2022-10-19T13:11:15.139Z,23.4
2022-10-19T13:16:17.329Z,22.4
2022-10-19T13:21:19.389Z,23.4
2022-10-19T13:26:22.062Z,24.2
2022-10-19T13:31:24.653Z,23.9
2022-10-19T13:36:26.925Z,23.9
2022-10-19T13:41:29.168Z,23.8
2022-10-19T13:46:31.188Z,23.2
2022-10-19T13:51:33.281Z,23
2022-10-19T13:56:35.672Z,22.4
2022-10-19T14:01:37.798Z,22.3
2022-10-19T14:06:40.098Z,21.6
2022-10-19T14:11:42.285Z,21.4
2022-10-19T14:16:45.014Z,21.2
2022-10-19T14:21:47.010Z,21.1
2022-10-19T14:26:49.733Z,20.9
2022-10-19T14:31:51.758Z,20.5
2022-10-19T14:36:54.506Z,19.7
2022-10-19T14:41:57.769Z,19.6
2022-10-19T14:47:05.175Z,19.5
2022-10-19T14:52:07.219Z,19.3
2022-10-19T14:57:09.515Z,18.9
2022-10-19T15:02:11.760Z,18.7
2022-10-19T15:07:14.046Z,18.5
2022-10-19T15:12:16.161Z,18.4
2022-10-19T15:17:22.671Z,18
2022-10-19T15:22:24.695Z,18
2022-10-19T15:27:26.904Z,17.8
2022-10-19T15:32:29.467Z,17.5
2022-10-19T15:37:31.659Z,17.2
2022-10-19T15:42:35.806Z,16.7
2022-10-19T15:47:39.391Z,16.5
2022-10-19T15:52:41.778Z,16.5
2022-10-19T15:57:44.035Z,16.3
2022-10-19T16:02:46.252Z,16
2022-10-19T16:07:48.319Z,15.8
2022-10-19T16:12:50.406Z,15.7
2022-10-19T16:17:52.600Z,15.5
2022-10-19T16:22:54.775Z,15.3
2022-10-19T16:27:56.855Z,15.2
2022-10-19T16:32:59.093Z,15.1
2022-10-19T16:38:01.176Z,15
2022-10-19T16:43:03.448Z,14.9
2022-10-19T16:48:06.870Z,14.7
2022-10-19T16:53:09.145Z,14.5
2022-10-19T16:58:11.751Z,14.3
2022-10-19T17:03:13.879Z,14.2
2022-10-19T17:08:15.972Z,14.1
2022-10-19T17:13:18.514Z,14
2022-10-19T17:18:20.648Z,14
2022-10-19T17:23:22.709Z,13.8
2022-10-19T17:28:28.896Z,13.5
2022-10-19T17:33:30.867Z,13.4
2022-10-19T17:38:32.878Z,13.3
2022-10-19T17:43:35.001Z,13.2
2022-10-19T17:48:37.085Z,13
2022-10-19T17:53:39.153Z,12.9
2022-10-19T17:58:42.056Z,12.6
2022-10-19T18:03:44.201Z,12.6
2022-10-19T18:08:46.579Z,12.6
2022-10-19T18:13:48.902Z,12.5
2022-10-19T18:18:52.519Z,12.3
2022-10-19T18:23:55.286Z,12.3
2022-10-19T18:28:57.409Z,12.2
2022-10-19T18:33:59.488Z,12.1
2022-10-19T18:39:01.789Z,12
2022-10-19T18:44:03.768Z,11.9
2022-10-19T18:49:05.679Z,11.8
2022-10-19T18:54:08.147Z,11.7
2022-10-19T18:59:10.608Z,11.6
2022-10-19T19:04:12.734Z,11.5
2022-10-19T19:09:15.047Z,11.3
2022-10-19T19:14:17.288Z,11.2
2022-10-19T19:19:19.554Z,11.1
2022-10-19T19:24:21.634Z,11
2022-10-19T19:29:23.687Z,10.9
2022-10-19T19:34:25.818Z,10.8
2022-10-19T19:39:27.887Z,10.8
2022-10-19T19:44:30.099Z,10.6
2022-10-19T19:49:32.481Z,10.6
2022-10-19T19:54:34.531Z,10.4
2022-10-19T19:59:36.915Z,10.3
2022-10-19T20:04:38.982Z,10.3
2022-10-19T20:09:41.161Z,10.2
2022-10-19T20:14:43.387Z,10
2022-10-19T20:19:45.494Z,9.9
2022-10-19T20:24:47.636Z,9.9
2022-10-19T20:29:50.617Z,9.7
2022-10-19T20:34:52.760Z,9.7
2022-10-19T20:39:54.804Z,9.7
2022-10-19T20:44:56.853Z,9.6
2022-10-19T20:49:59.029Z,9.5
2022-10-19T20:55:01.360Z,9.5
2022-10-19T21:00:03.481Z,9.4
2022-10-19T21:05:05.737Z,9.4
2022-10-19T21:10:07.886Z,9.4
2022-10-19T21:15:09.906Z,9.2
2022-10-19T21:20:12.048Z,9.1
2022-10-19T21:25:14.342Z,9
2022-10-19T21:30:16.510Z,9
2022-10-19T21:35:18.466Z,9
2022-10-19T21:40:20.640Z,9
2022-10-19T21:45:38.218Z,8.8
2022-10-19T21:50:30.309Z,8.7
2022-10-19T21:55:32.202Z,8.7
2022-10-19T22:00:34.470Z,8.5
2022-10-19T22:05:36.591Z,8.4
2022-10-19T22:10:38.688Z,8.3
2022-10-19T22:15:40.881Z,8.2
2022-10-19T22:20:42.897Z,8.1
2022-10-19T22:25:45.055Z,8
2022-10-19T22:30:47.133Z,8
2022-10-19T22:35:49.441Z,8
2022-10-19T22:40:52.002Z,7.8
2022-10-19T22:45:54.701Z,7.7
2022-10-19T22:50:56.747Z,7.7
2022-10-19T22:55:58.799Z,7.6
2022-10-19T23:01:00.890Z,7.5
2022-10-19T23:06:03.266Z,7.4
2022-10-19T23:11:05.246Z,7.3
2022-10-19T23:16:07.371Z,7.3
2022-10-19T23:21:09.718Z,7.3
2022-10-19T23:26:11.841Z,7.2
2022-10-19T23:31:14.095Z,7.2
2022-10-19T23:36:16.128Z,7.1
2022-10-19T23:41:18.268Z,7
2022-10-19T23:46:20.545Z,7
2022-10-19T23:51:23.032Z,6.9
2022-10-19T23:56:25.281Z,6.9
